sensor_id;sensor_type;location;lat;lon;timestamp;P1;durP1;ratioP1;P2;durP2;ratioP2
23800;SDS011;12081;48.614;10.226;2022-10-04T00:03:22;5.20;;;4.70;;
23800;SDS011;12081;48.614;10.226;2022-10-04T00:11:51;5.87;;;4.23;;
23800;SDS011;12081;48.614;10.226;2022-10-04T00:14:38;4.73;;;4.23;;
23800;SDS011;12081;48.614;10.226;2022-10-04T00:17:26;7.93;;;4.40;;
23800;SDS011;12081;48.614;10.226;2022-10-04T00:23:42;6.50;;;4.83;;
23800;SDS011;12081;48.614;10.226;2022-10-04T00:29:31;7.00;;;5.90;;
23800;SDS011;12081;48.614;10.226;2022-10-04T00:38:12;6.00;;;4.70;;
23800;SDS011;12081;48.614;10.226;2022-10-04T00:41:02;5.97;;;4.37;;
23800;SDS011;12081;48.614;10.226;2022-10-04T00:43:50;8.43;;;4.73;;
23800;SDS011;12081;48.614;10.226;2022-10-04T00:46:34;7.27;;;4.53;;
23800;SDS011;12081;48.614;10.226;2022-10-04T00:49:25;7.00;;;4.60;;
23800;SDS011;12081;48.614;10.226;2022-10-04T00:52:18;5.97;;;4.43;;
23800;SDS011;12081;48.614;10.226;2022-10-04T00:55:08;6.33;;;4.70;;
23800;SDS011;12081;48.614;10.226;2022-10-04T00:58:02;6.37;;;5.07;;
23800;SDS011;12081;48.614;10.226;2022-10-04T01:00:49;6.60;;;5.17;;
23800;SDS011;12081;48.614;10.226;2022-10-04T01:03:37;7.07;;;4.70;;
23800;SDS011;12081;48.614;10.226;2022-10-04T01:06:26;8.97;;;4.80;;
23800;SDS011;12081;48.614;10.226;2022-10-04T01:09:11;5.97;;;3.93;;
23800;SDS011;12081;48.614;10.226;2022-10-04T01:12:03;7.77;;;4.50;;
23800;SDS011;12081;48.614;10.226;2022-10-04T01:15:11;5.13;;;3.87;;
23800;SDS011;12081;48.614;10.226;2022-10-04T01:24:23;9.53;;;4.50;;
23800;SDS011;12081;48.614;10.226;2022-10-04T01:30:22;4.30;;;3.90;;
23800;SDS011;12081;48.614;10.226;2022-10-04T01:33:06;8.90;;;4.33;;
23800;SDS011;12081;48.614;10.226;2022-10-04T01:35:50;8.90;;;3.87;;
23800;SDS011;12081;48.614;10.226;2022-10-04T01:38:35;7.33;;;3.90;;
23800;SDS011;12081;48.614;10.226;2022-10-04T01:41:20;4.10;;;3.70;;
23800;SDS011;12081;48.614;10.226;2022-10-04T01:44:16;4.90;;;3.77;;
23800;SDS011;12081;48.614;10.226;2022-10-04T01:47:39;6.47;;;3.90;;
23800;SDS011;12081;48.614;10.226;2022-10-04T01:50:27;5.77;;;3.73;;
23800;SDS011;12081;48.614;10.226;2022-10-04T01:53:26;6.43;;;3.80;;
23800;SDS011;12081;48.614;10.226;2022-10-04T01:56:14;6.77;;;3.80;;
23800;SDS011;12081;48.614;10.226;2022-10-04T01:59:05;4.90;;;3.73;;
23800;SDS011;12081;48.614;10.226;2022-10-04T02:02:02;7.27;;;3.80;;
23800;SDS011;12081;48.614;10.226;2022-10-04T02:04:54;5.77;;;3.87;;
23800;SDS011;12081;48.614;10.226;2022-10-04T02:07:40;5.20;;;3.93;;
23800;SDS011;12081;48.614;10.226;2022-10-04T02:10:25;5.77;;;4.37;;
23800;SDS011;12081;48.614;10.226;2022-10-04T02:13:12;5.33;;;4.40;;
23800;SDS011;12081;48.614;10.226;2022-10-04T02:16:01;7.07;;;4.60;;
23800;SDS011;12081;48.614;10.226;2022-10-04T02:18:46;7.00;;;4.77;;
23800;SDS011;12081;48.614;10.226;2022-10-04T02:21:34;8.83;;;5.07;;
23800;SDS011;12081;48.614;10.226;2022-10-04T02:24:18;8.37;;;4.77;;
23800;SDS011;12081;48.614;10.226;2022-10-04T02:27:03;10.70;;;4.80;;
23800;SDS011;12081;48.614;10.226;2022-10-04T02:29:49;8.17;;;4.33;;
23800;SDS011;12081;48.614;10.226;2022-10-04T02:32:33;5.13;;;4.37;;
23800;SDS011;12081;48.614;10.226;2022-10-04T02:35:42;8.37;;;4.50;;
23800;SDS011;12081;48.614;10.226;2022-10-04T02:38:29;7.53;;;4.50;;
23800;SDS011;12081;48.614;10.226;2022-10-04T02:41:29;8.47;;;4.40;;
23800;SDS011;12081;48.614;10.226;2022-10-04T02:44:41;6.07;;;4.23;;
23800;SDS011;12081;48.614;10.226;2022-10-04T02:48:01;9.13;;;4.33;;
23800;SDS011;12081;48.614;10.226;2022-10-04T02:50:47;6.13;;;4.13;;
23800;SDS011;12081;48.614;10.226;2022-10-04T02:53:37;5.63;;;4.07;;
23800;SDS011;12081;48.614;10.226;2022-10-04T02:56:27;7.67;;;4.47;;
23800;SDS011;12081;48.614;10.226;2022-10-04T02:59:14;6.60;;;4.53;;
23800;SDS011;12081;48.614;10.226;2022-10-04T03:02:00;7.80;;;4.73;;
23800;SDS011;12081;48.614;10.226;2022-10-04T03:04:45;7.57;;;4.00;;
23800;SDS011;12081;48.614;10.226;2022-10-04T03:07:31;7.03;;;4.70;;
23800;SDS011;12081;48.614;10.226;2022-10-04T03:10:17;6.53;;;4.33;;
23800;SDS011;12081;48.614;10.226;2022-10-04T03:13:01;5.70;;;4.33;;
23800;SDS011;12081;48.614;10.226;2022-10-04T03:15:46;8.47;;;4.80;;
23800;SDS011;12081;48.614;10.226;2022-10-04T03:18:34;6.77;;;3.97;;
23800;SDS011;12081;48.614;10.226;2022-10-04T03:21:19;4.80;;;4.23;;
23800;SDS011;12081;48.614;10.226;2022-10-04T03:24:05;5.53;;;3.87;;
23800;SDS011;12081;48.614;10.226;2022-10-04T03:26:56;7.90;;;4.07;;
23800;SDS011;12081;48.614;10.226;2022-10-04T03:29:43;7.23;;;4.27;;
23800;SDS011;12081;48.614;10.226;2022-10-04T03:32:28;4.53;;;4.07;;
23800;SDS011;12081;48.614;10.226;2022-10-04T03:35:30;8.30;;;4.70;;
23800;SDS011;12081;48.614;10.226;2022-10-04T03:38:18;6.60;;;4.20;;
23800;SDS011;12081;48.614;10.226;2022-10-04T03:41:03;8.47;;;4.97;;
23800;SDS011;12081;48.614;10.226;2022-10-04T03:43:48;13.83;;;5.57;;
23800;SDS011;12081;48.614;10.226;2022-10-04T03:46:35;7.40;;;4.60;;
23800;SDS011;12081;48.614;10.226;2022-10-04T03:49:24;7.83;;;4.30;;
23800;SDS011;12081;48.614;10.226;2022-10-04T03:52:16;6.77;;;3.87;;
23800;SDS011;12081;48.614;10.226;2022-10-04T03:55:05;5.07;;;4.03;;
23800;SDS011;12081;48.614;10.226;2022-10-04T03:57:51;8.23;;;3.90;;
23800;SDS011;12081;48.614;10.226;2022-10-04T04:00:40;5.80;;;4.40;;
23800;SDS011;12081;48.614;10.226;2022-10-04T04:15:45;6.93;;;4.27;;
23800;SDS011;12081;48.614;10.226;2022-10-04T04:22:15;6.77;;;4.07;;
23800;SDS011;12081;48.614;10.226;2022-10-04T04:26:16;5.17;;;3.80;;
23800;SDS011;12081;48.614;10.226;2022-10-04T04:29:15;6.43;;;4.10;;
23800;SDS011;12081;48.614;10.226;2022-10-04T04:32:14;5.77;;;3.93;;
23800;SDS011;12081;48.614;10.226;2022-10-04T04:35:29;5.40;;;3.93;;
23800;SDS011;12081;48.614;10.226;2022-10-04T04:38:24;6.03;;;4.10;;
23800;SDS011;12081;48.614;10.226;2022-10-04T04:41:09;6.63;;;4.67;;
23800;SDS011;12081;48.614;10.226;2022-10-04T04:43:54;6.37;;;4.07;;
23800;SDS011;12081;48.614;10.226;2022-10-04T04:46:38;8.90;;;4.70;;
23800;SDS011;12081;48.614;10.226;2022-10-04T04:49:26;8.80;;;4.50;;
23800;SDS011;12081;48.614;10.226;2022-10-04T04:52:14;8.60;;;4.20;;
23800;SDS011;12081;48.614;10.226;2022-10-04T04:55:00;6.23;;;4.00;;
23800;SDS011;12081;48.614;10.226;2022-10-04T04:57:47;5.70;;;4.07;;
23800;SDS011;12081;48.614;10.226;2022-10-04T05:00:35;7.47;;;5.50;;
23800;SDS011;12081;48.614;10.226;2022-10-04T05:03:21;7.83;;;6.13;;
23800;SDS011;12081;48.614;10.226;2022-10-04T05:06:25;5.00;;;3.83;;
23800;SDS011;12081;48.614;10.226;2022-10-04T05:12:21;6.33;;;4.17;;
23800;SDS011;12081;48.614;10.226;2022-10-04T05:15:07;5.23;;;3.73;;
23800;SDS011;12081;48.614;10.226;2022-10-04T05:17:53;4.67;;;3.77;;
23800;SDS011;12081;48.614;10.226;2022-10-04T05:20:37;7.13;;;3.77;;
23800;SDS011;12081;48.614;10.226;2022-10-04T05:23:23;7.47;;;4.70;;
23800;SDS011;12081;48.614;10.226;2022-10-04T05:26:11;7.77;;;4.63;;
23800;SDS011;12081;48.614;10.226;2022-10-04T05:28:58;9.07;;;4.80;;
23800;SDS011;12081;48.614;10.226;2022-10-04T05:34:52;8.43;;;5.23;;
23800;SDS011;12081;48.614;10.226;2022-10-04T05:37:44;14.90;;;6.17;;
23800;SDS011;12081;48.614;10.226;2022-10-04T05:46:19;11.13;;;7.30;;
23800;SDS011;12081;48.614;10.226;2022-10-04T05:49:16;7.57;;;5.90;;
23800;SDS011;12081;48.614;10.226;2022-10-04T05:52:05;10.07;;;6.47;;
23800;SDS011;12081;48.614;10.226;2022-10-04T06:14:25;13.93;;;7.70;;
23800;SDS011;12081;48.614;10.226;2022-10-04T06:17:36;16.53;;;8.50;;
23800;SDS011;12081;48.614;10.226;2022-10-04T06:20:41;16.03;;;7.73;;
23800;SDS011;12081;48.614;10.226;2022-10-04T06:23:42;14.17;;;7.67;;
23800;SDS011;12081;48.614;10.226;2022-10-04T06:26:38;16.23;;;7.70;;
23800;SDS011;12081;48.614;10.226;2022-10-04T06:29:29;16.23;;;9.37;;
23800;SDS011;12081;48.614;10.226;2022-10-04T06:32:20;14.13;;;9.40;;
23800;SDS011;12081;48.614;10.226;2022-10-04T06:41:22;26.80;;;18.63;;
23800;SDS011;12081;48.614;10.226;2022-10-04T07:04:57;38.30;;;12.80;;
23800;SDS011;12081;48.614;10.226;2022-10-04T07:07:47;32.20;;;11.40;;
23800;SDS011;12081;48.614;10.226;2022-10-04T07:10:52;32.13;;;11.43;;
23800;SDS011;12081;48.614;10.226;2022-10-04T07:13:54;23.97;;;12.97;;
23800;SDS011;12081;48.614;10.226;2022-10-04T07:16:51;26.43;;;13.00;;
23800;SDS011;12081;48.614;10.226;2022-10-04T07:19:47;20.03;;;11.43;;
23800;SDS011;12081;48.614;10.226;2022-10-04T07:22:40;20.10;;;11.97;;
23800;SDS011;12081;48.614;10.226;2022-10-04T07:25:56;19.20;;;11.63;;
23800;SDS011;12081;48.614;10.226;2022-10-04T07:28:46;20.83;;;11.03;;
23800;SDS011;12081;48.614;10.226;2022-10-04T07:32:00;19.13;;;9.97;;
23800;SDS011;12081;48.614;10.226;2022-10-04T07:34:51;17.40;;;8.53;;
23800;SDS011;12081;48.614;10.226;2022-10-04T07:37:51;16.57;;;8.37;;
23800;SDS011;12081;48.614;10.226;2022-10-04T07:40:37;12.27;;;7.17;;
23800;SDS011;12081;48.614;10.226;2022-10-04T07:43:28;14.10;;;8.13;;
23800;SDS011;12081;48.614;10.226;2022-10-04T07:49:21;10.80;;;7.10;;
23800;SDS011;12081;48.614;10.226;2022-10-04T07:55:14;9.43;;;4.80;;
23800;SDS011;12081;48.614;10.226;2022-10-04T07:58:31;6.83;;;5.13;;
23800;SDS011;12081;48.614;10.226;2022-10-04T08:07:25;6.73;;;5.17;;
23800;SDS011;12081;48.614;10.226;2022-10-04T08:13:41;8.77;;;5.50;;
23800;SDS011;12081;48.614;10.226;2022-10-04T08:16:58;7.27;;;5.50;;
23800;SDS011;12081;48.614;10.226;2022-10-04T08:23:14;10.67;;;5.63;;
23800;SDS011;12081;48.614;10.226;2022-10-04T08:30:04;9.33;;;5.80;;
23800;SDS011;12081;48.614;10.226;2022-10-04T08:33:02;6.67;;;5.37;;
23800;SDS011;12081;48.614;10.226;2022-10-04T08:48:35;8.50;;;5.27;;
23800;SDS011;12081;48.614;10.226;2022-10-04T08:57:33;7.60;;;4.30;;
23800;SDS011;12081;48.614;10.226;2022-10-04T09:00:37;9.03;;;4.50;;
23800;SDS011;12081;48.614;10.226;2022-10-04T09:06:33;7.97;;;4.33;;
23800;SDS011;12081;48.614;10.226;2022-10-04T09:10:05;6.27;;;4.20;;
23800;SDS011;12081;48.614;10.226;2022-10-04T09:16:13;9.03;;;4.40;;
23800;SDS011;12081;48.614;10.226;2022-10-04T09:25:15;8.37;;;4.53;;
23800;SDS011;12081;48.614;10.226;2022-10-04T09:34:56;5.40;;;3.30;;
23800;SDS011;12081;48.614;10.226;2022-10-04T09:41:20;4.80;;;2.70;;
23800;SDS011;12081;48.614;10.226;2022-10-04T09:44:40;5.73;;;2.90;;
23800;SDS011;12081;48.614;10.226;2022-10-04T09:48:24;6.03;;;2.80;;
23800;SDS011;12081;48.614;10.226;2022-10-04T09:51:13;3.77;;;2.80;;
23800;SDS011;12081;48.614;10.226;2022-10-04T10:00:21;5.93;;;4.00;;
23800;SDS011;12081;48.614;10.226;2022-10-04T10:09:35;5.23;;;2.30;;
23800;SDS011;12081;48.614;10.226;2022-10-04T10:35:25;7.60;;;3.30;;
23800;SDS011;12081;48.614;10.226;2022-10-04T10:38:27;6.63;;;3.10;;
23800;SDS011;12081;48.614;10.226;2022-10-04T10:41:23;7.40;;;3.20;;
23800;SDS011;12081;48.614;10.226;2022-10-04T11:00:33;4.65;;;2.85;;
23800;SDS011;12081;48.614;10.226;2022-10-04T11:20:39;5.07;;;2.90;;
23800;SDS011;12081;48.614;10.226;2022-10-04T11:30:15;5.13;;;2.47;;
23800;SDS011;12081;48.614;10.226;2022-10-04T11:36:28;4.68;;;2.53;;
23800;SDS011;12081;48.614;10.226;2022-10-04T11:39:40;3.53;;;2.20;;
23800;SDS011;12081;48.614;10.226;2022-10-04T11:58:16;4.10;;;2.72;;
23800;SDS011;12081;48.614;10.226;2022-10-04T12:16:08;8.43;;;3.67;;
23800;SDS011;12081;48.614;10.226;2022-10-04T12:19:12;4.20;;;2.80;;
23800;SDS011;12081;48.614;10.226;2022-10-04T12:25:23;4.65;;;2.50;;
23800;SDS011;12081;48.614;10.226;2022-10-04T12:28:24;4.28;;;3.08;;
23800;SDS011;12081;48.614;10.226;2022-10-04T12:31:41;3.92;;;2.63;;
23800;SDS011;12081;48.614;10.226;2022-10-04T12:41:01;4.68;;;3.28;;
23800;SDS011;12081;48.614;10.226;2022-10-04T12:46:54;6.07;;;3.40;;
23800;SDS011;12081;48.614;10.226;2022-10-04T12:50:25;6.00;;;3.27;;
23800;SDS011;12081;48.614;10.226;2022-10-04T13:11:45;6.70;;;2.80;;
23800;SDS011;12081;48.614;10.226;2022-10-04T13:17:57;4.13;;;2.60;;
23800;SDS011;12081;48.614;10.226;2022-10-04T13:21:01;3.80;;;2.80;;
23800;SDS011;12081;48.614;10.226;2022-10-04T13:24:06;3.33;;;2.77;;
23800;SDS011;12081;48.614;10.226;2022-10-04T13:27:07;3.43;;;2.80;;
23800;SDS011;12081;48.614;10.226;2022-10-04T13:30:03;6.47;;;2.80;;
23800;SDS011;12081;48.614;10.226;2022-10-04T13:33:04;4.00;;;3.03;;
23800;SDS011;12081;48.614;10.226;2022-10-04T13:42:57;5.07;;;3.13;;
23800;SDS011;12081;48.614;10.226;2022-10-04T13:55:53;5.33;;;3.40;;
23800;SDS011;12081;48.614;10.226;2022-10-04T14:08:50;3.80;;;2.50;;
23800;SDS011;12081;48.614;10.226;2022-10-04T14:17:58;3.93;;;2.70;;
23800;SDS011;12081;48.614;10.226;2022-10-04T14:24:07;4.03;;;2.27;;
23800;SDS011;12081;48.614;10.226;2022-10-04T14:27:04;7.70;;;2.90;;
23800;SDS011;12081;48.614;10.226;2022-10-04T14:52:27;3.73;;;2.30;;
23800;SDS011;12081;48.614;10.226;2022-10-04T14:55:28;4.67;;;2.57;;
23800;SDS011;12081;48.614;10.226;2022-10-04T15:02:04;4.27;;;2.10;;
23800;SDS011;12081;48.614;10.226;2022-10-04T15:11:05;7.10;;;1.93;;
23800;SDS011;12081;48.614;10.226;2022-10-04T15:13:52;2.03;;;1.80;;
23800;SDS011;12081;48.614;10.226;2022-10-04T15:16:45;5.13;;;2.33;;
23800;SDS011;12081;48.614;10.226;2022-10-04T15:29:21;6.63;;;2.63;;
23800;SDS011;12081;48.614;10.226;2022-10-04T15:35:05;6.43;;;2.70;;
23800;SDS011;12081;48.614;10.226;2022-10-04T15:44:51;6.90;;;2.80;;
23800;SDS011;12081;48.614;10.226;2022-10-04T16:06:29;5.37;;;3.53;;
23800;SDS011;12081;48.614;10.226;2022-10-04T16:12:27;8.73;;;3.47;;
23800;SDS011;12081;48.614;10.226;2022-10-04T16:18:35;6.67;;;3.43;;
23800;SDS011;12081;48.614;10.226;2022-10-04T16:27:14;8.97;;;3.43;;
23800;SDS011;12081;48.614;10.226;2022-10-04T16:30:58;6.67;;;3.73;;
23800;SDS011;12081;48.614;10.226;2022-10-04T16:39:55;6.90;;;3.77;;
23800;SDS011;12081;48.614;10.226;2022-10-04T16:46:04;6.80;;;3.80;;
23800;SDS011;12081;48.614;10.226;2022-10-04T16:48:56;6.63;;;4.17;;
23800;SDS011;12081;48.614;10.226;2022-10-04T17:04:31;5.83;;;4.37;;
23800;SDS011;12081;48.614;10.226;2022-10-04T17:07:22;6.60;;;4.47;;
23800;SDS011;12081;48.614;10.226;2022-10-04T17:17:00;8.73;;;5.57;;
23800;SDS011;12081;48.614;10.226;2022-10-04T17:19:27;8.90;;;5.33;;
23800;SDS011;12081;48.614;10.226;2022-10-04T17:22:38;10.40;;;5.27;;
23800;SDS011;12081;48.614;10.226;2022-10-04T17:26:00;9.70;;;5.40;;
23800;SDS011;12081;48.614;10.226;2022-10-04T17:28:55;11.77;;;5.53;;
23800;SDS011;12081;48.614;10.226;2022-10-04T17:41:58;12.40;;;10.23;;
23800;SDS011;12081;48.614;10.226;2022-10-04T17:45:14;35.40;;;29.90;;
23800;SDS011;12081;48.614;10.226;2022-10-04T17:48:26;21.40;;;12.50;;
23800;SDS011;12081;48.614;10.226;2022-10-04T17:51:42;18.03;;;11.60;;
23800;SDS011;12081;48.614;10.226;2022-10-04T17:54:52;18.87;;;11.43;;
23800;SDS011;12081;48.614;10.226;2022-10-04T17:58:02;23.67;;;18.80;;
23800;SDS011;12081;48.614;10.226;2022-10-04T18:04:08;13.87;;;11.33;;
23800;SDS011;12081;48.614;10.226;2022-10-04T18:07:17;14.23;;;12.47;;
23800;SDS011;12081;48.614;10.226;2022-10-04T18:10:28;9.13;;;7.70;;
23800;SDS011;12081;48.614;10.226;2022-10-04T18:23:15;10.13;;;6.87;;
23800;SDS011;12081;48.614;10.226;2022-10-04T18:29:01;14.83;;;10.83;;
23800;SDS011;12081;48.614;10.226;2022-10-04T18:31:51;12.73;;;9.47;;
23800;SDS011;12081;48.614;10.226;2022-10-04T18:34:35;10.97;;;8.90;;
23800;SDS011;12081;48.614;10.226;2022-10-04T18:37:20;8.87;;;7.77;;
23800;SDS011;12081;48.614;10.226;2022-10-04T18:40:23;11.70;;;7.83;;
23800;SDS011;12081;48.614;10.226;2022-10-04T18:43:27;9.83;;;7.60;;
23800;SDS011;12081;48.614;10.226;2022-10-04T18:46:14;25.33;;;15.90;;
23800;SDS011;12081;48.614;10.226;2022-10-04T18:49:15;20.17;;;13.07;;
23800;SDS011;12081;48.614;10.226;2022-10-04T18:52:07;19.27;;;13.37;;
23800;SDS011;12081;48.614;10.226;2022-10-04T18:58:05;38.70;;;34.23;;
23800;SDS011;12081;48.614;10.226;2022-10-04T19:04:46;25.03;;;17.43;;
23800;SDS011;12081;48.614;10.226;2022-10-04T19:10:53;47.27;;;42.17;;
23800;SDS011;12081;48.614;10.226;2022-10-04T19:13:53;24.93;;;19.17;;
23800;SDS011;12081;48.614;10.226;2022-10-04T19:17:18;20.60;;;15.60;;
23800;SDS011;12081;48.614;10.226;2022-10-04T19:23:00;16.13;;;11.67;;
23800;SDS011;12081;48.614;10.226;2022-10-04T19:39:13;13.50;;;10.43;;
23800;SDS011;12081;48.614;10.226;2022-10-04T19:42:11;15.53;;;11.53;;
23800;SDS011;12081;48.614;10.226;2022-10-04T19:47:56;16.33;;;12.67;;
23800;SDS011;12081;48.614;10.226;2022-10-04T19:50:45;13.47;;;9.23;;
23800;SDS011;12081;48.614;10.226;2022-10-04T19:53:39;16.77;;;10.13;;
23800;SDS011;12081;48.614;10.226;2022-10-04T19:56:26;12.90;;;10.07;;
23800;SDS011;12081;48.614;10.226;2022-10-04T19:59:17;13.27;;;9.90;;
23800;SDS011;12081;48.614;10.226;2022-10-04T20:02:11;14.57;;;9.50;;
23800;SDS011;12081;48.614;10.226;2022-10-04T20:04:56;11.83;;;10.30;;
23800;SDS011;12081;48.614;10.226;2022-10-04T20:07:40;15.57;;;11.57;;
23800;SDS011;12081;48.614;10.226;2022-10-04T20:10:33;16.60;;;10.53;;
23800;SDS011;12081;48.614;10.226;2022-10-04T20:13:19;15.47;;;10.10;;
23800;SDS011;12081;48.614;10.226;2022-10-04T20:16:07;16.93;;;11.13;;
23800;SDS011;12081;48.614;10.226;2022-10-04T20:18:56;14.40;;;10.93;;
23800;SDS011;12081;48.614;10.226;2022-10-04T20:21:42;13.37;;;10.00;;
23800;SDS011;12081;48.614;10.226;2022-10-04T20:30:14;17.00;;;11.00;;
23800;SDS011;12081;48.614;10.226;2022-10-04T20:32:59;13.80;;;11.17;;
23800;SDS011;12081;48.614;10.226;2022-10-04T20:35:58;16.47;;;11.13;;
23800;SDS011;12081;48.614;10.226;2022-10-04T20:44:42;12.70;;;9.07;;
23800;SDS011;12081;48.614;10.226;2022-10-04T20:48:00;12.03;;;9.13;;
23800;SDS011;12081;48.614;10.226;2022-10-04T20:50:44;17.03;;;9.43;;
23800;SDS011;12081;48.614;10.226;2022-10-04T20:53:31;17.37;;;10.53;;
23800;SDS011;12081;48.614;10.226;2022-10-04T20:59:12;15.07;;;9.57;;
23800;SDS011;12081;48.614;10.226;2022-10-04T21:02:01;11.57;;;9.17;;
23800;SDS011;12081;48.614;10.226;2022-10-04T21:04:48;13.80;;;8.87;;
23800;SDS011;12081;48.614;10.226;2022-10-04T21:07:35;14.33;;;8.67;;
23800;SDS011;12081;48.614;10.226;2022-10-04T21:10:19;12.37;;;8.73;;
23800;SDS011;12081;48.614;10.226;2022-10-04T21:13:04;13.70;;;9.90;;
23800;SDS011;12081;48.614;10.226;2022-10-04T21:15:54;17.57;;;11.30;;
23800;SDS011;12081;48.614;10.226;2022-10-04T21:18:39;14.40;;;9.93;;
23800;SDS011;12081;48.614;10.226;2022-10-04T21:24:40;13.77;;;10.60;;
23800;SDS011;12081;48.614;10.226;2022-10-04T21:30:13;14.70;;;11.13;;
23800;SDS011;12081;48.614;10.226;2022-10-04T21:33:00;15.87;;;11.50;;
23800;SDS011;12081;48.614;10.226;2022-10-04T21:35:44;20.03;;;12.00;;
23800;SDS011;12081;48.614;10.226;2022-10-04T21:38:28;18.23;;;11.33;;
23800;SDS011;12081;48.614;10.226;2022-10-04T21:41:12;16.97;;;11.00;;
23800;SDS011;12081;48.614;10.226;2022-10-04T21:43:56;18.70;;;10.57;;
23800;SDS011;12081;48.614;10.226;2022-10-04T21:46:40;15.07;;;9.63;;
23800;SDS011;12081;48.614;10.226;2022-10-04T21:49:24;12.53;;;9.67;;
23800;SDS011;12081;48.614;10.226;2022-10-04T21:52:08;14.17;;;9.27;;
23800;SDS011;12081;48.614;10.226;2022-10-04T21:54:53;18.70;;;10.90;;
23800;SDS011;12081;48.614;10.226;2022-10-04T21:57:37;16.47;;;10.97;;
23800;SDS011;12081;48.614;10.226;2022-10-04T22:00:21;12.10;;;9.73;;
23800;SDS011;12081;48.614;10.226;2022-10-04T22:03:06;11.33;;;8.93;;
23800;SDS011;12081;48.614;10.226;2022-10-04T22:05:50;17.20;;;9.93;;
23800;SDS011;12081;48.614;10.226;2022-10-04T22:08:34;13.33;;;9.80;;
23800;SDS011;12081;48.614;10.226;2022-10-04T22:11:18;14.57;;;10.20;;
23800;SDS011;12081;48.614;10.226;2022-10-04T22:14:02;13.20;;;9.73;;
23800;SDS011;12081;48.614;10.226;2022-10-04T22:16:47;16.50;;;8.90;;
23800;SDS011;12081;48.614;10.226;2022-10-04T22:19:31;16.23;;;10.47;;
23800;SDS011;12081;48.614;10.226;2022-10-04T22:22:15;15.47;;;9.27;;
23800;SDS011;12081;48.614;10.226;2022-10-04T22:24:59;15.13;;;9.90;;
23800;SDS011;12081;48.614;10.226;2022-10-04T22:27:44;18.60;;;10.00;;
23800;SDS011;12081;48.614;10.226;2022-10-04T22:30:29;13.43;;;10.30;;
23800;SDS011;12081;48.614;10.226;2022-10-04T22:41:53;16.93;;;9.67;;
23800;SDS011;12081;48.614;10.226;2022-10-04T22:44:39;15.97;;;9.83;;
23800;SDS011;12081;48.614;10.226;2022-10-04T22:47:24;13.83;;;9.80;;
23800;SDS011;12081;48.614;10.226;2022-10-04T22:50:12;12.70;;;8.77;;
23800;SDS011;12081;48.614;10.226;2022-10-04T22:53:13;11.20;;;8.70;;
23800;SDS011;12081;48.614;10.226;2022-10-04T22:55:59;11.07;;;8.50;;
23800;SDS011;12081;48.614;10.226;2022-10-04T22:58:44;12.50;;;9.43;;
23800;SDS011;12081;48.614;10.226;2022-10-04T23:01:28;13.97;;;9.37;;
23800;SDS011;12081;48.614;10.226;2022-10-04T23:04:24;12.83;;;9.13;;
23800;SDS011;12081;48.614;10.226;2022-10-04T23:07:08;12.73;;;9.33;;
23800;SDS011;12081;48.614;10.226;2022-10-04T23:09:53;12.03;;;8.77;;
23800;SDS011;12081;48.614;10.226;2022-10-04T23:12:37;12.67;;;9.00;;
23800;SDS011;12081;48.614;10.226;2022-10-04T23:15:23;14.30;;;10.23;;
23800;SDS011;12081;48.614;10.226;2022-10-04T23:18:12;18.73;;;12.77;;
23800;SDS011;12081;48.614;10.226;2022-10-04T23:20:58;19.07;;;13.50;;
23800;SDS011;12081;48.614;10.226;2022-10-04T23:23:44;22.27;;;14.30;;
23800;SDS011;12081;48.614;10.226;2022-10-04T23:26:31;16.33;;;12.23;;
23800;SDS011;12081;48.614;10.226;2022-10-04T23:29:29;18.53;;;11.33;;
23800;SDS011;12081;48.614;10.226;2022-10-04T23:32:16;16.40;;;11.23;;
23800;SDS011;12081;48.614;10.226;2022-10-04T23:35:02;17.23;;;10.63;;
23800;SDS011;12081;48.614;10.226;2022-10-04T23:37:47;14.50;;;10.63;;
23800;SDS011;12081;48.614;10.226;2022-10-04T23:40:32;15.47;;;10.90;;
23800;SDS011;12081;48.614;10.226;2022-10-04T23:43:18;18.90;;;11.70;;
23800;SDS011;12081;48.614;10.226;2022-10-04T23:46:10;17.00;;;11.03;;
23800;SDS011;12081;48.614;10.226;2022-10-04T23:49:00;12.50;;;10.03;;
23800;SDS011;12081;48.614;10.226;2022-10-04T23:51:44;17.17;;;10.70;;
23800;SDS011;12081;48.614;10.226;2022-10-04T23:54:29;13.47;;;10.50;;
23800;SDS011;12081;48.614;10.226;2022-10-04T23:57:19;16.33;;;9.20;;
